Time;durP1;ratioP1;P1;durP2;ratioP2;P2;SDS_P1;SDS_P2;PMS_P1;PMS_P2;Temp;Humidity;BMP_temperature;BMP_pressure;BME280_temperature;BME280_humidity;BME280_pressure;Samples;Min_cycle;Max_cycle;Signal;HPM_P1;HPM_P2
2023/08/03 00:00:29;;;;;;;19.30;2.60;;;17.10;58.20;;;;;;5040748;28;46225;-84
2023/08/03 00:02:54;;;;;;;11.43;2.83;;;17.10;58.20;;;;;;5061015;28;46558;-83
2023/08/03 00:05:20;;;;;;;12.07;2.87;;;17.00;58.20;;;;;;5061908;28;46625;-83
2023/08/03 00:07:47;;;;;;;8.60;2.00;;;16.90;58.70;;;;;;5044050;28;46728;-82
2023/08/03 00:10:13;;;;;;;5.70;2.37;;;16.90;59.00;;;;;;5039082;28;46686;-82
2023/08/03 00:12:38;;;;;;;6.03;2.20;;;16.80;59.20;;;;;;5043297;28;48250;-84
2023/08/03 00:15:05;;;;;;;8.10;2.00;;;16.80;59.30;;;;;;5058975;28;46352;-83
2023/08/03 00:17:30;;;;;;;6.30;2.20;;;16.80;60.40;;;;;;5060444;28;45920;-82
2023/08/03 00:19:56;;;;;;;4.90;2.23;;;16.80;59.70;;;;;;5059888;28;46615;-84
2023/08/03 00:22:21;;;;;;;7.60;2.23;;;16.70;60.00;;;;;;5058858;28;47109;-84
2023/08/03 00:24:49;;;;;;;5.87;2.47;;;16.60;60.20;;;;;;5060816;28;46703;-83
2023/08/03 00:27:14;;;;;;;8.10;2.13;;;16.60;60.20;;;;;;5060290;28;46503;-84
2023/08/03 00:29:47;;;;;;;13.23;2.70;;;16.70;60.30;;;;;;5105211;27;46415;-71
2023/08/03 00:32:13;;;;;;;6.50;2.20;;;16.70;60.40;;;;;;5096066;27;46508;-70
2023/08/03 00:34:39;;;;;;;9.50;2.30;;;16.80;60.20;;;;;;5097037;27;46819;-71
2023/08/03 00:37:04;;;;;;;10.13;2.63;;;16.80;60.10;;;;;;5095427;27;45967;-69
2023/08/03 00:39:30;;;;;;;8.73;2.40;;;16.90;60.30;;;;;;5099474;27;48085;-70
2023/08/03 00:41:56;;;;;;;12.13;2.10;;;16.90;60.00;;;;;;5094442;27;46415;-70
2023/08/03 00:44:21;;;;;;;12.30;2.40;;;16.90;60.00;;;;;;5097721;27;46446;-71
2023/08/03 00:46:47;;;;;;;14.13;2.90;;;17.00;60.00;;;;;;5098297;27;46524;-71
2023/08/03 00:49:13;;;;;;;13.63;2.53;;;17.00;60.00;;;;;;5099887;27;47044;-71
2023/08/03 00:51:38;;;;;;;9.83;2.30;;;16.90;60.00;;;;;;5091616;27;46347;-71
2023/08/03 00:54:07;;;;;;;10.83;3.03;;;16.90;60.20;;;;;;5092665;27;46610;-70
2023/08/03 00:56:36;;;;;;;12.77;2.70;;;16.90;60.30;;;;;;5095386;27;46466;-70
2023/08/03 00:59:06;;;;;;;7.10;2.23;;;16.80;60.40;;;;;;5092740;27;46451;-71
2023/08/03 01:01:32;;;;;;;11.07;2.67;;;16.80;60.70;;;;;;5095905;27;46551;-71
2023/08/03 01:03:58;;;;;;;8.33;2.40;;;16.60;60.80;;;;;;5093862;27;45977;-71
2023/08/03 01:06:24;;;;;;;15.47;2.80;;;16.60;61.10;;;;;;5095454;27;46613;-71
2023/08/03 01:08:50;;;;;;;7.83;2.30;;;16.50;61.20;;;;;;5094857;27;46741;-70
2023/08/03 01:11:15;;;;;;;6.40;2.30;;;16.50;61.20;;;;;;5099371;27;46655;-72
2023/08/03 01:13:41;;;;;;;16.23;2.13;;;16.50;61.20;;;;;;5093155;27;46451;-71
2023/08/03 01:16:09;;;;;;;19.40;2.97;;;16.50;61.10;;;;;;5088785;27;46449;-70
2023/08/03 01:18:36;;;;;;;9.17;2.87;;;16.40;61.10;;;;;;5088136;27;46717;-70
2023/08/03 01:21:05;;;;;;;17.70;2.80;;;16.50;60.90;;;;;;5092771;27;46651;-70
2023/08/03 01:23:31;;;;;;;8.80;2.57;;;16.50;60.60;;;;;;5095848;27;46584;-70
2023/08/03 01:25:56;;;;;;;10.17;2.50;;;16.60;60.20;;;;;;5100276;27;46392;-70
2023/08/03 01:28:22;;;;;;;12.60;3.07;;;16.70;59.90;;;;;;5090777;27;45972;-71
2023/08/03 01:30:48;;;;;;;13.67;2.80;;;16.70;59.60;;;;;;5100410;27;46421;-70
2023/08/03 01:33:13;;;;;;;6.27;2.27;;;16.70;59.50;;;;;;5097025;27;46447;-71
2023/08/03 01:35:39;;;;;;;14.37;2.70;;;16.80;59.40;;;;;;5096154;27;46627;-70
2023/08/03 01:38:05;;;;;;;12.53;2.50;;;16.80;58.90;;;;;;5094155;27;48274;-70
2023/08/03 01:40:31;;;;;;;8.37;2.80;;;16.80;58.60;;;;;;5085550;27;46523;-70
2023/08/03 01:42:56;;;;;;;19.83;2.60;;;16.90;58.30;;;;;;5082177;27;45933;-70
2023/08/03 01:45:22;;;;;;;8.83;2.33;;;16.90;58.10;;;;;;5075369;27;46712;-71
2023/08/03 01:47:47;;;;;;;14.43;2.50;;;16.90;58.00;;;;;;5080176;27;47131;-70
2023/08/03 01:50:13;;;;;;;16.87;2.57;;;16.80;59.10;;;;;;5080789;27;45892;-69
2023/08/03 01:52:39;;;;;;;5.90;2.30;;;16.90;58.10;;;;;;5083049;27;46524;-71
2023/08/03 01:55:05;;;;;;;7.90;2.67;;;16.80;58.40;;;;;;5078890;27;46641;-71
2023/08/03 01:57:30;;;;;;;9.20;2.50;;;16.70;58.80;;;;;;5083668;27;47228;-72
2023/08/03 01:59:56;;;;;;;10.40;2.60;;;16.60;59.10;;;;;;5080578;27;46797;-70
2023/08/03 02:02:21;;;;;;;11.70;2.40;;;16.50;59.40;;;;;;5078177;27;47027;-72
2023/08/03 02:04:47;;;;;;;9.03;3.03;;;16.40;59.50;;;;;;5082197;27;46487;-72
2023/08/03 02:07:18;;;;;;;11.80;2.70;;;16.40;59.90;;;;;;5073433;27;46390;-71
2023/08/03 02:09:44;;;;;;;20.13;2.50;;;16.30;59.90;;;;;;5082202;27;46087;-71
2023/08/03 02:12:09;;;;;;;14.30;2.80;;;16.20;60.00;;;;;;5080415;27;46497;-72
2023/08/03 02:14:35;;;;;;;13.00;2.67;;;16.20;60.00;;;;;;5076889;27;46719;-71
2023/08/03 02:17:01;;;;;;;13.30;2.40;;;16.20;60.10;;;;;;5076609;27;47111;-71
2023/08/03 02:19:27;;;;;;;22.37;2.43;;;16.10;60.00;;;;;;5080789;27;46473;-72
2023/08/03 02:21:52;;;;;;;4.90;2.10;;;16.10;60.00;;;;;;5084105;27;46438;-71
2023/08/03 02:24:18;;;;;;;9.30;2.40;;;16.20;59.80;;;;;;5077902;27;45909;-71
2023/08/03 02:26:44;;;;;;;8.17;2.40;;;16.20;59.70;;;;;;5074251;27;47304;-71
2023/08/03 02:29:09;;;;;;;12.90;2.70;;;16.10;59.60;;;;;;5078585;27;46623;-71
2023/08/03 02:31:35;;;;;;;7.17;2.37;;;16.10;59.50;;;;;;5080208;27;46647;-71
2023/08/03 02:34:00;;;;;;;10.30;2.60;;;16.10;59.40;;;;;;5077715;27;46418;-71
2023/08/03 02:36:26;;;;;;;12.33;3.47;;;16.20;59.50;;;;;;5081164;27;46349;-71
2023/08/03 02:38:51;;;;;;;14.03;2.97;;;16.10;59.30;;;;;;5078314;27;46581;-72
2023/08/03 02:41:17;;;;;;;15.43;3.80;;;16.10;59.40;;;;;;5075249;27;46479;-70
2023/08/03 02:43:43;;;;;;;18.60;3.00;;;16.10;59.30;;;;;;5074176;27;46548;-72
2023/08/03 02:46:08;;;;;;;10.23;2.83;;;16.00;59.50;;;;;;5079248;27;48324;-71
2023/08/03 02:48:34;;;;;;;15.43;3.60;;;16.00;59.40;;;;;;5080295;27;46431;-71
2023/08/03 02:51:00;;;;;;;9.13;2.80;;;15.90;59.40;;;;;;5076879;27;46538;-70
2023/08/03 02:53:25;;;;;;;12.87;2.20;;;15.90;59.40;;;;;;5075986;27;47130;-72
2023/08/03 02:55:51;;;;;;;11.30;3.37;;;15.80;59.40;;;;;;5081380;27;46393;-70
2023/08/03 02:58:17;;;;;;;9.40;2.40;;;15.80;59.40;;;;;;5077865;27;46600;-71
2023/08/03 03:00:43;;;;;;;13.13;3.10;;;15.80;59.50;;;;;;5079347;27;46720;-71
2023/08/03 03:03:08;;;;;;;15.20;3.07;;;15.80;59.40;;;;;;5076160;27;46671;-71
2023/08/03 03:05:34;;;;;;;10.77;2.73;;;15.80;59.40;;;;;;5071674;27;46312;-71
2023/08/03 03:08:00;;;;;;;16.73;2.93;;;15.80;59.50;;;;;;5075629;27;45866;-71
2023/08/03 03:10:25;;;;;;;14.80;2.60;;;15.80;59.50;;;;;;5075260;27;46519;-70
2023/08/03 03:12:52;;;;;;;15.33;2.63;;;15.70;59.20;;;;;;5077786;27;46347;-71
2023/08/03 03:15:17;;;;;;;11.57;2.63;;;15.80;59.30;;;;;;5077497;27;46640;-71
2023/08/03 03:17:43;;;;;;;13.10;2.60;;;15.70;59.20;;;;;;5078784;27;46447;-70
2023/08/03 03:20:10;;;;;;;13.47;2.90;;;15.80;59.20;;;;;;5078413;27;46433;-71
2023/08/03 03:22:36;;;;;;;7.70;2.27;;;15.70;59.10;;;;;;5082411;27;46431;-71
2023/08/03 03:25:05;;;;;;;8.70;2.30;;;15.80;59.10;;;;;;5078513;27;46039;-71
2023/08/03 03:27:30;;;;;;;12.70;3.20;;;15.80;58.90;;;;;;5086341;27;46515;-70
2023/08/03 03:29:56;;;;;;;9.20;2.40;;;15.80;58.80;;;;;;5077503;27;46493;-71
2023/08/03 03:32:22;;;;;;;12.00;3.00;;;15.80;58.90;;;;;;5078834;27;46756;-71
2023/08/03 03:34:47;;;;;;;15.03;2.80;;;15.70;58.80;;;;;;5072598;27;47973;-71
2023/08/03 03:37:13;;;;;;;8.60;2.10;;;15.70;59.00;;;;;;5077843;27;46476;-71
2023/08/03 03:39:39;;;;;;;11.60;2.60;;;15.70;59.10;;;;;;5081357;27;46457;-71
2023/08/03 03:42:05;;;;;;;9.30;2.30;;;15.60;59.00;;;;;;5079873;27;46058;-71
2023/08/03 03:44:30;;;;;;;11.10;4.30;;;15.60;58.90;;;;;;5079868;27;46633;-70
2023/08/03 03:46:56;;;;;;;15.10;2.47;;;15.60;58.80;;;;;;5074866;27;46493;-71
2023/08/03 03:49:21;;;;;;;15.93;3.00;;;15.60;58.80;;;;;;5083589;27;46391;-72
2023/08/03 03:51:47;;;;;;;9.80;2.23;;;15.60;58.80;;;;;;5083096;27;46245;-71
2023/08/03 03:54:13;;;;;;;9.57;2.40;;;15.60;58.80;;;;;;5081190;27;46719;-71
2023/08/03 03:56:38;;;;;;;17.13;3.17;;;15.50;58.90;;;;;;5076630;27;46394;-71
2023/08/03 03:59:04;;;;;;;8.17;2.40;;;15.60;58.80;;;;;;5074863;27;46388;-70
2023/08/03 04:01:29;;;;;;;14.50;3.27;;;15.60;58.70;;;;;;5076098;27;45835;-70
2023/08/03 04:03:55;;;;;;;13.70;2.53;;;15.60;58.60;;;;;;5072094;27;47241;-71
2023/08/03 04:06:20;;;;;;;18.23;3.27;;;15.60;58.60;;;;;;5080058;27;46713;-71
2023/08/03 04:08:46;;;;;;;11.17;2.20;;;15.60;58.50;;;;;;5079107;27;46485;-69
2023/08/03 04:11:12;;;;;;;13.50;2.47;;;15.60;58.40;;;;;;5073324;27;46772;-70
2023/08/03 04:13:37;;;;;;;12.30;2.90;;;15.70;58.30;;;;;;5080423;27;46462;-71
2023/08/03 04:16:03;;;;;;;10.47;2.53;;;15.70;58.10;;;;;;5068389;27;46723;-70
2023/08/03 04:18:29;;;;;;;10.20;2.00;;;15.80;57.80;;;;;;5076619;27;46852;-70
2023/08/03 04:20:54;;;;;;;11.83;2.37;;;15.80;57.50;;;;;;5077904;27;45909;-71
2023/08/03 04:23:20;;;;;;;9.20;2.20;;;15.80;57.00;;;;;;5077360;27;46566;-72
2023/08/03 04:25:45;;;;;;;6.30;1.80;;;15.90;57.10;;;;;;5074622;27;46492;-71
2023/08/03 04:28:11;;;;;;;8.27;2.10;;;15.90;57.10;;;;;;5076007;27;46471;-71
2023/08/03 04:30:36;;;;;;;10.87;2.20;;;15.90;57.10;;;;;;5077094;27;46157;-69
2023/08/03 04:33:02;;;;;;;10.77;3.20;;;15.90;57.10;;;;;;5073670;27;46427;-71
2023/08/03 04:35:28;;;;;;;10.07;2.53;;;16.00;57.20;;;;;;5076900;27;46394;-71
2023/08/03 04:37:53;;;;;;;11.20;2.47;;;16.00;57.20;;;;;;5082607;27;46441;-71
2023/08/03 04:40:19;;;;;;;8.73;2.17;;;16.00;58.30;;;;;;5078026;27;46000;-71
2023/08/03 04:42:44;;;;;;;12.17;2.17;;;16.00;56.80;;;;;;5077830;27;46719;-72
2023/08/03 04:45:10;;;;;;;13.00;2.40;;;16.10;56.60;;;;;;5078408;27;46405;-71
2023/08/03 04:47:36;;;;;;;20.07;3.30;;;16.10;56.10;;;;;;5082649;27;46578;-71
2023/08/03 04:50:01;;;;;;;10.20;1.93;;;16.20;55.80;;;;;;5077321;27;46683;-71
2023/08/03 04:52:27;;;;;;;13.93;2.40;;;16.20;55.30;;;;;;5077033;27;46731;-71
2023/08/03 04:54:52;;;;;;;10.53;1.90;;;16.30;54.90;;;;;;5071026;27;46476;-71
2023/08/03 04:57:18;;;;;;;17.30;2.20;;;16.40;54.50;;;;;;5079325;27;46465;-71
2023/08/03 04:59:44;;;;;;;9.70;2.07;;;16.50;54.00;;;;;;5072737;27;46450;-71
2023/08/03 05:02:09;;;;;;;13.80;2.50;;;16.90;52.50;;;;;;5076858;27;46444;-72
2023/08/03 05:04:35;;;;;;;10.70;2.30;;;18.10;50.90;;;;;;5077417;27;46411;-71
2023/08/03 05:07:00;;;;;;;9.67;2.60;;;19.30;48.10;;;;;;5082040;27;46443;-70
2023/08/03 05:09:26;;;;;;;7.93;1.73;;;19.90;45.00;;;;;;5080309;27;46559;-72
2023/08/03 05:11:52;;;;;;;6.77;1.90;;;20.50;42.60;;;;;;5071104;27;45953;-71
2023/08/03 05:14:17;;;;;;;9.53;2.47;;;20.90;40.40;;;;;;5069072;27;46827;-70
2023/08/03 05:16:43;;;;;;;5.57;2.00;;;21.40;37.30;;;;;;5076710;27;46510;-70
2023/08/03 05:19:08;;;;;;;8.93;2.47;;;21.30;35.30;;;;;;5075752;27;46340;-70
2023/08/03 05:21:34;;;;;;;8.70;2.50;;;21.20;34.80;;;;;;5079676;27;46799;-70
2023/08/03 05:23:59;;;;;;;9.77;2.10;;;21.50;32.90;;;;;;5080100;27;46549;-70
2023/08/03 05:26:26;;;;;;;6.27;2.07;;;21.80;30.80;;;;;;5082551;27;46461;-69
2023/08/03 05:28:52;;;;;;;7.10;2.13;;;22.30;29.60;;;;;;5075125;27;46695;-70
2023/08/03 05:31:17;;;;;;;5.97;1.90;;;22.80;26.70;;;;;;5081069;27;46723;-71
2023/08/03 05:33:43;;;;;;;5.80;2.00;;;23.10;25.60;;;;;;5073857;27;46568;-71
2023/08/03 05:36:09;;;;;;;10.40;2.20;;;23.40;24.80;;;;;;5080125;27;46699;-70
2023/08/03 05:38:34;;;;;;;8.43;2.23;;;23.80;23.80;;;;;;5077660;27;46411;-70
2023/08/03 05:41:00;;;;;;;5.33;2.13;;;24.00;21.80;;;;;;5083261;27;46404;-70
2023/08/03 05:43:27;;;;;;;8.40;2.13;;;24.10;20.50;;;;;;5083381;27;46718;-70
2023/08/03 05:46:13;;;;;;;6.87;1.77;;;24.10;19.40;;;;;;5082730;27;46480;-70
2023/08/03 05:48:39;;;;;;;8.97;2.23;;;24.20;19.10;;;;;;5077227;27;46429;-71
2023/08/03 05:51:05;;;;;;;7.30;1.83;;;24.40;19.30;;;;;;5076414;27;46379;-72
2023/08/03 05:53:31;;;;;;;8.00;1.90;;;24.40;18.20;;;;;;5072687;27;46396;-72
2023/08/03 05:55:57;;;;;;;9.90;1.60;;;24.50;18.20;;;;;;5079515;27;46457;-70
2023/08/03 05:58:23;;;;;;;9.80;2.23;;;24.60;16.00;;;;;;5081297;27;45843;-70
2023/08/03 06:00:49;;;;;;;6.00;1.90;;;24.50;16.70;;;;;;5077398;27;47096;-70
2023/08/03 06:03:17;;;;;;;8.13;2.40;;;24.30;15.80;;;;;;5076379;27;46475;-70
2023/08/03 06:05:47;;;;;;;8.20;1.90;;;24.10;14.30;;;;;;5063424;27;46650;-70
2023/08/03 06:08:21;;;;;;;4.37;1.67;;;23.80;14.00;;;;;;5083841;22;46857;-69
2023/08/03 06:10:50;;;;;;;7.87;1.57;;;23.70;14.00;;;;;;5074680;27;46420;-68
2023/08/03 06:13:18;;;;;;;6.20;1.70;;;23.80;14.00;;;;;;5074553;27;46461;-68
2023/08/03 06:15:45;;;;;;;4.63;1.60;;;23.80;14.00;;;;;;5075680;27;46735;-68
2023/08/03 06:18:16;;;;;;;4.90;1.70;;;24.00;13.00;;;;;;5077022;27;46376;-68
2023/08/03 06:20:45;;;;;;;7.00;1.60;;;24.00;11.90;;;;;;5076610;27;47271;-69
2023/08/03 06:23:16;;;;;;;4.93;1.60;;;23.80;12.00;;;;;;5075981;27;46502;-69
2023/08/03 06:25:42;;;;;;;6.27;1.67;;;24.00;11.90;;;;;;5074336;27;46502;-68
2023/08/03 06:28:10;;;;;;;7.67;1.80;;;23.50;12.10;;;;;;5074108;27;46402;-69
2023/08/03 06:30:36;;;;;;;7.77;1.90;;;22.00;15.90;;;;;;5075071;27;47248;-68
2023/08/03 06:33:02;;;;;;;3.60;1.50;;;21.20;18.20;;;;;;5075413;27;46868;-69
2023/08/03 06:35:39;;;;;;;7.03;1.70;;;20.80;19.30;;;;;;5075652;27;46681;-69
2023/08/03 06:38:07;;;;;;;8.33;2.13;;;20.80;19.80;;;;;;5075288;27;46649;-68
2023/08/03 06:40:33;;;;;;;6.60;1.80;;;21.90;15.80;;;;;;5074275;27;46507;-69
2023/08/03 06:43:01;;;;;;;6.27;1.60;;;23.30;12.30;;;;;;5075451;27;45789;-69
2023/08/03 06:45:29;;;;;;;6.57;1.50;;;24.20;10.00;;;;;;5073491;27;46481;-67
2023/08/03 06:47:54;;;;;;;4.20;1.50;;;24.40;9.10;;;;;;5075294;27;47021;-67
2023/08/03 06:50:20;;;;;;;8.60;1.57;;;24.50;8.90;;;;;;5075552;27;46422;-68
2023/08/03 06:52:45;;;;;;;7.50;2.40;;;24.80;8.40;;;;;;5075387;27;46481;-68
2023/08/03 06:55:11;;;;;;;7.33;1.77;;;25.20;7.70;;;;;;5074686;27;46509;-67
2023/08/03 06:57:36;;;;;;;5.47;1.87;;;25.70;6.70;;;;;;5076036;27;46420;-68
2023/08/03 07:00:03;;;;;;;6.00;1.70;;;25.30;6.80;;;;;;5073770;27;46671;-68
2023/08/03 07:02:28;;;;;;;6.47;1.60;;;24.60;9.50;;;;;;5074693;27;45859;-69
2023/08/03 07:04:54;;;;;;;7.90;2.07;;;23.60;12.30;;;;;;5074755;27;46402;-68
2023/08/03 07:07:19;;;;;;;5.60;1.30;;;22.90;13.40;;;;;;5074365;27;46367;-68
2023/08/03 07:09:48;;;;;;;9.77;1.60;;;22.00;14.60;;;;;;5073215;27;46525;-68
2023/08/03 07:12:14;;;;;;;6.30;1.60;;;21.50;15.40;;;;;;5075325;27;46431;-68
2023/08/03 07:14:40;;;;;;;7.20;1.70;;;21.40;15.90;;;;;;5072678;27;46464;-67
2023/08/03 07:17:06;;;;;;;7.53;1.53;;;21.40;16.00;;;;;;5075372;27;46461;-69
2023/08/03 07:19:31;;;;;;;4.83;1.70;;;21.20;15.70;;;;;;5074933;27;47082;-67
2023/08/03 07:21:57;;;;;;;8.20;1.80;;;21.10;16.00;;;;;;5071594;27;46404;-67
2023/08/03 07:24:23;;;;;;;5.93;1.40;;;21.00;16.00;;;;;;5073616;27;45806;-67
2023/08/03 07:26:49;;;;;;;5.87;1.40;;;20.70;16.50;;;;;;5073544;27;46461;-67
2023/08/03 07:29:15;;;;;;;5.37;1.70;;;20.50;17.00;;;;;;5073869;27;47300;-68
2023/08/03 07:31:41;;;;;;;8.73;1.97;;;20.60;17.50;;;;;;5071681;27;46015;-66
2023/08/03 07:34:06;;;;;;;7.40;1.53;;;20.70;17.70;;;;;;5071773;27;46409;-67
2023/08/03 07:36:32;;;;;;;6.60;1.60;;;20.80;17.40;;;;;;5072023;27;46821;-67
2023/08/03 07:38:58;;;;;;;8.20;1.70;;;20.90;17.40;;;;;;5072981;27;46646;-67
2023/08/03 07:41:24;;;;;;;9.10;1.67;;;21.00;17.60;;;;;;5074949;27;46280;-67
2023/08/03 07:43:52;;;;;;;5.33;1.60;;;20.80;17.70;;;;;;5073051;27;46493;-67
2023/08/03 07:46:18;;;;;;;7.10;1.50;;;20.80;18.70;;;;;;5072107;27;46414;-68
2023/08/03 07:48:43;;;;;;;10.43;2.00;;;21.00;18.80;;;;;;5071174;27;46548;-69
2023/08/03 07:51:14;;;;;;;7.63;1.40;;;21.00;18.20;;;;;;5072789;27;46404;-68
2023/08/03 07:53:39;;;;;;;6.73;1.93;;;20.90;18.00;;;;;;5072644;27;46386;-68
2023/08/03 07:56:14;;;;;;;8.73;1.60;;;20.90;18.50;;;;;;5071274;27;46575;-66
2023/08/03 07:58:39;;;;;;;7.80;1.67;;;21.10;18.30;;;;;;5076853;27;46461;-65
2023/08/03 08:01:05;;;;;;;6.93;1.80;;;21.30;18.20;;;;;;5077934;27;46458;-66
2023/08/03 08:03:31;;;;;;;8.00;2.23;;;21.10;17.40;;;;;;5075489;27;46457;-65
2023/08/03 08:06:12;;;;;;;5.73;1.70;;;21.10;17.80;;;;;;5076793;27;46579;-67
2023/08/03 08:08:38;;;;;;;9.10;1.40;;;21.10;17.60;;;;;;5076382;27;46576;-66
2023/08/03 08:11:05;;;;;;;6.40;2.13;;;21.10;17.80;;;;;;5076120;27;46446;-66
2023/08/03 08:13:31;;;;;;;6.70;1.87;;;21.20;17.30;;;;;;5075154;27;46843;-67
2023/08/03 08:16:08;;;;;;;10.97;1.37;;;21.20;17.10;;;;;;5076816;27;46449;-66
2023/08/03 08:18:35;;;;;;;8.67;2.17;;;21.20;17.50;;;;;;5077363;27;47906;-66
2023/08/03 08:21:08;;;;;;;7.30;1.97;;;21.30;17.50;;;;;;5075879;27;47399;-67
2023/08/03 08:23:35;;;;;;;13.73;2.10;;;21.40;17.60;;;;;;5078140;27;45812;-67
2023/08/03 08:26:02;;;;;;;5.77;1.63;;;21.40;16.90;;;;;;5075359;27;46455;-67
2023/08/03 08:28:29;;;;;;;4.87;1.33;;;21.20;16.50;;;;;;5075158;27;47179;-66
2023/08/03 08:30:54;;;;;;;4.63;1.40;;;21.40;16.80;;;;;;5076151;27;46487;-66
2023/08/03 08:33:21;;;;;;;5.43;1.40;;;21.50;16.90;;;;;;5076167;27;46564;-66
2023/08/03 08:35:49;;;;;;;7.47;1.50;;;21.70;17.20;;;;;;5077970;27;46457;-67
2023/08/03 08:38:17;;;;;;;6.93;1.30;;;21.90;16.90;;;;;;5078460;27;49452;-67
2023/08/03 08:40:47;;;;;;;6.97;1.33;;;22.10;16.50;;;;;;5080806;27;46370;-68
2023/08/03 08:43:13;;;;;;;4.30;1.40;;;22.00;16.00;;;;;;5078017;27;46726;-68
2023/08/03 08:45:41;;;;;;;5.37;1.37;;;22.10;15.90;;;;;;5079792;27;46525;-68
2023/08/03 08:48:07;;;;;;;5.40;1.60;;;22.00;15.60;;;;;;5063236;27;47808;-68
2023/08/03 08:50:33;;;;;;;4.97;1.20;;;22.10;16.00;;;;;;5076446;27;46451;-68
2023/08/03 08:52:58;;;;;;;4.93;1.40;;;22.20;15.70;;;;;;5073947;27;46544;-70
2023/08/03 08:55:26;;;;;;;5.03;1.20;;;22.20;15.70;;;;;;5078629;27;46509;-68
2023/08/03 08:57:52;;;;;;;9.97;1.77;;;22.20;15.30;;;;;;5079470;27;47197;-68
2023/08/03 09:00:19;;;;;;;7.57;1.27;;;21.90;15.30;;;;;;5078992;27;46416;-67
2023/08/03 09:02:44;;;;;;;6.27;1.40;;;21.80;15.50;;;;;;5077580;27;46464;-68
2023/08/03 09:05:15;;;;;;;4.90;1.30;;;21.60;15.80;;;;;;5078450;27;46602;-69
2023/08/03 09:07:41;;;;;;;10.03;1.50;;;21.60;15.70;;;;;;5076017;27;47234;-69
2023/08/03 09:10:08;;;;;;;11.30;1.70;;;21.60;15.50;;;;;;5075306;27;46517;-68
2023/08/03 09:12:34;;;;;;;6.10;1.77;;;21.50;15.70;;;;;;5080612;27;46718;-68
2023/08/03 09:14:59;;;;;;;4.50;1.10;;;21.60;15.80;;;;;;5077719;27;46415;-68
2023/08/03 09:17:26;;;;;;;3.70;1.40;;;21.70;15.90;;;;;;5076085;27;47249;-66
2023/08/03 09:19:52;;;;;;;5.77;1.60;;;21.80;15.60;;;;;;5073882;27;46863;-66
2023/08/03 09:22:20;;;;;;;5.20;1.43;;;21.80;15.40;;;;;;5075354;27;46446;-67
2023/08/03 09:24:48;;;;;;;4.03;1.20;;;21.90;15.50;;;;;;5075428;27;46674;-67
2023/08/03 09:27:16;;;;;;;6.00;1.20;;;21.90;14.40;;;;;;5075561;27;46347;-68
2023/08/03 09:29:43;;;;;;;6.80;1.30;;;21.90;15.50;;;;;;5076015;27;46755;-67
2023/08/03 09:32:08;;;;;;;5.53;1.70;;;22.10;16.20;;;;;;5075248;27;46540;-67
2023/08/03 09:34:39;;;;;;;6.60;1.57;;;22.30;15.50;;;;;;5075435;27;46635;-67
2023/08/03 09:37:06;;;;;;;3.87;1.50;;;22.50;14.90;;;;;;5076016;27;46484;-67
2023/08/03 09:39:34;;;;;;;5.83;1.77;;;22.70;14.20;;;;;;5075907;27;46522;-67
2023/08/03 09:42:06;;;;;;;8.57;1.70;;;22.70;13.40;;;;;;5076338;27;46197;-68
2023/08/03 09:44:36;;;;;;;6.27;1.60;;;22.50;13.10;;;;;;5076378;27;46450;-66
2023/08/03 09:47:03;;;;;;;3.53;1.40;;;22.40;13.00;;;;;;5075885;27;46538;-66
2023/08/03 09:49:31;;;;;;;4.20;1.50;;;22.30;12.90;;;;;;5076263;27;46473;-68
2023/08/03 09:51:57;;;;;;;5.10;1.20;;;22.30;12.90;;;;;;5075674;27;46578;-68
2023/08/03 09:54:38;;;;;;;8.20;1.57;;;22.30;13.90;;;;;;5072475;27;46469;-68
2023/08/03 09:57:09;;;;;;;5.33;1.30;;;22.40;13.00;;;;;;5076676;27;46419;-68
2023/08/03 09:59:36;;;;;;;5.60;1.23;;;22.70;13.30;;;;;;5074443;27;46731;-68
2023/08/03 10:02:09;;;;;;;4.70;1.30;;;22.90;12.80;;;;;;5074548;27;46897;-68
2023/08/03 10:04:43;;;;;;;6.73;1.10;;;23.00;12.70;;;;;;5073932;27;46900;-68
2023/08/03 10:07:12;;;;;;;3.30;1.27;;;23.10;13.50;;;;;;5075057;27;47285;-68
2023/08/03 10:09:41;;;;;;;7.20;1.70;;;23.00;11.50;;;;;;5075022;27;46303;-67
2023/08/03 10:12:12;;;;;;;3.73;1.00;;;22.80;12.10;;;;;;5069468;27;46676;-68
2023/08/03 10:14:42;;;;;;;4.83;1.23;;;22.80;12.30;;;;;;5091382;27;46533;-67
2023/08/03 10:17:11;;;;;;;6.10;1.20;;;22.90;12.70;;;;;;5074590;27;46493;-68
2023/08/03 10:19:38;;;;;;;10.13;1.37;;;23.10;12.80;;;;;;5075357;27;46558;-68
2023/08/03 10:22:06;;;;;;;8.13;1.70;;;23.40;12.50;;;;;;5074026;27;46494;-68
2023/08/03 10:24:32;;;;;;;2.50;0.93;;;23.50;12.60;;;;;;5075547;27;46536;-67
2023/08/03 10:27:21;;;;;;;4.40;1.27;;;23.50;11.60;;;;;;5075033;27;46523;-68
2023/08/03 10:29:54;;;;;;;4.70;1.27;;;23.40;11.40;;;;;;5073639;27;46542;-68
2023/08/03 10:32:22;;;;;;;5.47;1.00;;;23.50;11.60;;;;;;5074540;27;46556;-68
2023/08/03 10:34:50;;;;;;;11.67;1.23;;;23.40;12.20;;;;;;5075930;27;46526;-67
2023/08/03 10:37:16;;;;;;;3.03;0.93;;;23.60;11.70;;;;;;5074883;27;47152;-68
2023/08/03 10:39:49;;;;;;;6.10;1.30;;;23.70;11.40;;;;;;5074580;27;46941;-68
2023/08/03 10:42:20;;;;;;;2.77;1.23;;;23.70;11.50;;;;;;5074923;27;46374;-68
2023/08/03 10:44:46;;;;;;;6.17;1.00;;;23.80;11.30;;;;;;5073475;27;46464;-69
2023/08/03 10:47:29;;;;;;;3.73;1.30;;;23.90;11.50;;;;;;5073564;27;46959;-68
2023/08/03 10:49:57;;;;;;;3.40;1.03;;;24.00;11.30;;;;;;5073955;27;46658;-68
2023/08/03 10:52:25;;;;;;;2.77;1.00;;;24.10;10.90;;;;;;5073166;27;46654;-68
2023/08/03 10:54:52;;;;;;;3.43;1.30;;;23.90;11.20;;;;;;5073505;27;46500;-68
2023/08/03 10:57:24;;;;;;;3.27;1.03;;;23.70;10.90;;;;;;5087770;27;46328;-68
2023/08/03 10:59:52;;;;;;;5.40;1.20;;;23.50;11.10;;;;;;5087903;27;46952;-68
2023/08/03 11:02:26;;;;;;;3.47;1.00;;;23.10;11.90;;;;;;5095257;27;46739;-68
2023/08/03 11:05:03;;;;;;;4.17;1.37;;;23.00;11.10;;;;;;5094090;27;46566;-68
2023/08/03 11:07:37;;;;;;;4.27;1.20;;;22.80;11.50;;;;;;5075478;27;47380;-67
2023/08/03 11:10:06;;;;;;;5.33;1.20;;;22.70;11.50;;;;;;5091601;27;46477;-68
2023/08/03 11:12:32;;;;;;;3.13;1.03;;;22.70;11.20;;;;;;5074620;27;46619;-68
2023/08/03 11:15:01;;;;;;;9.40;1.37;;;22.90;11.10;;;;;;5087161;27;46421;-68
2023/08/03 11:17:29;;;;;;;4.30;1.10;;;23.20;10.70;;;;;;5080092;27;46292;-68
2023/08/03 11:20:00;;;;;;;3.50;1.20;;;23.50;9.80;;;;;;5077659;27;46486;-67
2023/08/03 11:22:26;;;;;;;3.00;1.00;;;23.70;9.20;;;;;;5078955;27;46411;-67
2023/08/03 11:24:55;;;;;;;5.43;1.30;;;24.00;9.40;;;;;;5078284;27;46384;-68
2023/08/03 11:27:21;;;;;;;3.70;1.00;;;24.30;9.00;;;;;;5077209;27;46139;-68
2023/08/03 11:29:48;;;;;;;3.17;0.80;;;24.30;8.90;;;;;;5079564;27;46496;-67
2023/08/03 11:32:30;;;;;;;5.03;1.03;;;24.20;9.10;;;;;;5076958;27;45896;-69
2023/08/03 11:35:05;;;;;;;3.50;1.27;;;23.80;7.80;;;;;;5073729;27;46750;-70
2023/08/03 11:37:35;;;;;;;3.67;1.17;;;23.80;8.30;;;;;;5072529;27;47147;-71
2023/08/03 11:40:04;;;;;;;4.00;1.30;;;24.00;8.30;;;;;;5087616;27;46596;-69
2023/08/03 11:42:30;;;;;;;4.87;1.40;;;24.20;8.40;;;;;;5071482;27;46442;-69
2023/08/03 11:44:56;;;;;;;4.07;0.90;;;24.10;9.20;;;;;;5071449;27;46627;-69
2023/08/03 11:47:22;;;;;;;4.20;1.10;;;24.20;9.30;;;;;;5075599;27;46544;-68
2023/08/03 11:49:48;;;;;;;3.90;1.17;;;24.10;9.10;;;;;;5073242;27;46489;-69
2023/08/03 11:52:20;;;;;;;3.53;1.10;;;23.80;9.10;;;;;;5072377;27;46448;-70
2023/08/03 11:54:46;;;;;;;8.33;1.20;;;23.80;9.50;;;;;;5073430;27;46439;-70
2023/08/03 11:59:56;;;;;;;2.90;1.10;;;23.30;8.80;;;;;;5074061;27;46469;-70
2023/08/03 12:02:38;;;;;;;6.00;1.00;;;23.40;9.40;;;;;;5073903;27;46444;-70
2023/08/03 12:05:06;;;;;;;3.23;1.10;;;23.40;11.00;;;;;;5072988;27;46696;-68
2023/08/03 12:07:32;;;;;;;6.57;1.70;;;23.40;10.40;;;;;;5073942;27;47011;-70
2023/08/03 12:09:57;;;;;;;2.80;1.00;;;23.50;9.50;;;;;;5075999;27;46529;-70
2023/08/03 12:12:24;;;;;;;3.03;1.10;;;23.30;9.40;;;;;;5075985;27;45921;-69
2023/08/03 12:14:49;;;;;;;7.10;1.37;;;23.40;9.50;;;;;;5073559;27;46722;-69
2023/08/03 12:17:15;;;;;;;2.50;0.93;;;23.40;9.80;;;;;;5074992;27;46498;-66
2023/08/03 12:19:41;;;;;;;4.23;1.20;;;23.60;9.70;;;;;;5077384;27;46335;-67
2023/08/03 12:22:06;;;;;;;5.63;1.00;;;23.70;9.00;;;;;;5072310;27;46483;-66
2023/08/03 12:24:32;;;;;;;4.80;1.10;;;23.70;9.40;;;;;;5085476;27;46449;-66
2023/08/03 12:26:58;;;;;;;4.43;1.03;;;23.80;10.40;;;;;;5075765;27;46527;-66
2023/08/03 12:29:23;;;;;;;4.80;1.10;;;23.90;9.50;;;;;;5079755;27;46196;-68
2023/08/03 12:31:50;;;;;;;5.53;1.10;;;23.80;8.80;;;;;;5075739;27;46488;-69
2023/08/03 12:34:15;;;;;;;5.60;1.03;;;23.50;8.40;;;;;;5077480;27;46458;-65
2023/08/03 12:36:41;;;;;;;9.10;1.10;;;23.10;8.70;;;;;;5076773;27;47215;-66
2023/08/03 12:39:06;;;;;;;4.30;0.93;;;22.80;9.20;;;;;;5076733;27;46497;-66
2023/08/03 12:41:32;;;;;;;3.33;1.17;;;22.70;9.30;;;;;;5078313;27;46414;-66
2023/08/03 12:43:58;;;;;;;4.43;1.30;;;22.80;9.40;;;;;;5072200;27;46549;-66
2023/08/03 12:46:24;;;;;;;5.70;1.00;;;23.00;9.20;;;;;;5078115;27;47286;-66